sensor_id;sensor_type;location;lat;lon;timestamp;P1;durP1;ratioP1;P2;durP2;ratioP2
18320;SDS011;54904;54.350;18.664;2023-04-01T00:02:16;6.77;;;4.50;;
18320;SDS011;54904;54.350;18.664;2023-04-01T00:04:44;9.03;;;5.13;;
18320;SDS011;54904;54.350;18.664;2023-04-01T00:07:11;7.70;;;4.80;;
18320;SDS011;54904;54.350;18.664;2023-04-01T00:09:38;6.67;;;4.70;;
18320;SDS011;54904;54.350;18.664;2023-04-01T00:12:06;5.13;;;3.90;;
18320;SDS011;54904;54.350;18.664;2023-04-01T00:14:33;3.80;;;3.30;;
18320;SDS011;54904;54.350;18.664;2023-04-01T00:17:03;2.70;;;2.50;;
18320;SDS011;54904;54.350;18.664;2023-04-01T00:19:30;2.90;;;2.70;;
18320;SDS011;54904;54.350;18.664;2023-04-01T00:21:58;5.07;;;4.10;;
18320;SDS011;54904;54.350;18.664;2023-04-01T00:24:25;6.17;;;4.80;;
18320;SDS011;54904;54.350;18.664;2023-04-01T00:26:52;9.00;;;5.40;;
18320;SDS011;54904;54.350;18.664;2023-04-01T00:29:20;11.77;;;5.37;;
18320;SDS011;54904;54.350;18.664;2023-04-01T00:31:49;7.67;;;4.67;;
18320;SDS011;54904;54.350;18.664;2023-04-01T00:34:17;4.47;;;3.20;;
18320;SDS011;54904;54.350;18.664;2023-04-01T00:36:45;3.60;;;3.27;;
18320;SDS011;54904;54.350;18.664;2023-04-01T00:39:12;2.90;;;2.60;;
18320;SDS011;54904;54.350;18.664;2023-04-01T00:41:40;2.67;;;2.43;;
18320;SDS011;54904;54.350;18.664;2023-04-01T00:44:14;2.30;;;2.10;;
18320;SDS011;54904;54.350;18.664;2023-04-01T00:46:44;2.80;;;2.50;;
18320;SDS011;54904;54.350;18.664;2023-04-01T00:49:11;2.97;;;2.60;;
18320;SDS011;54904;54.350;18.664;2023-04-01T00:51:41;2.50;;;2.30;;
18320;SDS011;54904;54.350;18.664;2023-04-01T00:54:09;2.20;;;2.10;;
18320;SDS011;54904;54.350;18.664;2023-04-01T00:56:39;2.27;;;2.10;;
18320;SDS011;54904;54.350;18.664;2023-04-01T00:59:14;2.00;;;1.90;;
18320;SDS011;54904;54.350;18.664;2023-04-01T01:01:46;2.43;;;2.23;;
18320;SDS011;54904;54.350;18.664;2023-04-01T01:04:23;2.40;;;2.20;;
18320;SDS011;54904;54.350;18.664;2023-04-01T01:06:56;2.07;;;1.93;;
18320;SDS011;54904;54.350;18.664;2023-04-01T01:09:37;2.60;;;2.40;;
18320;SDS011;54904;54.350;18.664;2023-04-01T01:12:11;2.30;;;2.10;;
18320;SDS011;54904;54.350;18.664;2023-04-01T01:14:45;3.50;;;2.67;;
18320;SDS011;54904;54.350;18.664;2023-04-01T01:17:22;2.30;;;2.10;;
18320;SDS011;54904;54.350;18.664;2023-04-01T01:20:00;2.80;;;2.47;;
18320;SDS011;54904;54.350;18.664;2023-04-01T01:22:54;3.47;;;2.77;;
18320;SDS011;54904;54.350;18.664;2023-04-01T01:25:40;2.90;;;2.30;;
18320;SDS011;54904;54.350;18.664;2023-04-01T01:28:24;2.30;;;2.20;;
18320;SDS011;54904;54.350;18.664;2023-04-01T01:31:06;2.80;;;2.60;;
18320;SDS011;54904;54.350;18.664;2023-04-01T01:33:41;2.57;;;2.37;;
18320;SDS011;54904;54.350;18.664;2023-04-01T01:36:19;3.13;;;2.83;;
18320;SDS011;54904;54.350;18.664;2023-04-01T01:38:48;3.47;;;3.10;;
18320;SDS011;54904;54.350;18.664;2023-04-01T01:41:18;2.37;;;2.27;;
18320;SDS011;54904;54.350;18.664;2023-04-01T01:43:47;3.50;;;3.00;;
18320;SDS011;54904;54.350;18.664;2023-04-01T01:46:17;2.70;;;2.50;;
18320;SDS011;54904;54.350;18.664;2023-04-01T01:48:47;2.70;;;2.50;;
18320;SDS011;54904;54.350;18.664;2023-04-01T01:51:16;2.33;;;2.13;;
18320;SDS011;54904;54.350;18.664;2023-04-01T01:53:45;2.47;;;2.27;;
18320;SDS011;54904;54.350;18.664;2023-04-01T01:56:14;2.43;;;2.23;;
18320;SDS011;54904;54.350;18.664;2023-04-01T01:58:45;2.10;;;1.90;;
18320;SDS011;54904;54.350;18.664;2023-04-01T02:01:19;2.10;;;2.00;;
18320;SDS011;54904;54.350;18.664;2023-04-01T02:03:50;2.73;;;2.10;;
18320;SDS011;54904;54.350;18.664;2023-04-01T02:06:19;1.97;;;1.87;;
18320;SDS011;54904;54.350;18.664;2023-04-01T02:08:51;1.90;;;1.80;;
18320;SDS011;54904;54.350;18.664;2023-04-01T02:11:23;1.90;;;1.80;;
18320;SDS011;54904;54.350;18.664;2023-04-01T02:13:53;2.00;;;1.90;;
18320;SDS011;54904;54.350;18.664;2023-04-01T02:16:25;1.80;;;1.70;;
18320;SDS011;54904;54.350;18.664;2023-04-01T02:18:55;1.87;;;1.77;;
18320;SDS011;54904;54.350;18.664;2023-04-01T02:21:26;1.70;;;1.60;;
18320;SDS011;54904;54.350;18.664;2023-04-01T02:23:58;1.70;;;1.37;;
18320;SDS011;54904;54.350;18.664;2023-04-01T02:26:29;1.43;;;1.33;;
18320;SDS011;54904;54.350;18.664;2023-04-01T02:28:57;1.40;;;1.30;;
18320;SDS011;54904;54.350;18.664;2023-04-01T02:31:27;1.37;;;1.30;;
18320;SDS011;54904;54.350;18.664;2023-04-01T02:33:55;1.53;;;1.40;;
18320;SDS011;54904;54.350;18.664;2023-04-01T02:36:23;1.50;;;1.40;;
18320;SDS011;54904;54.350;18.664;2023-04-01T02:38:51;1.40;;;1.40;;
18320;SDS011;54904;54.350;18.664;2023-04-01T02:41:22;1.40;;;1.30;;
18320;SDS011;54904;54.350;18.664;2023-04-01T02:43:49;1.40;;;1.30;;
18320;SDS011;54904;54.350;18.664;2023-04-01T02:46:16;1.03;;;1.03;;
18320;SDS011;54904;54.350;18.664;2023-04-01T02:48:43;1.23;;;1.23;;
18320;SDS011;54904;54.350;18.664;2023-04-01T02:51:11;1.20;;;1.20;;
18320;SDS011;54904;54.350;18.664;2023-04-01T02:53:38;0.90;;;0.90;;
18320;SDS011;54904;54.350;18.664;2023-04-01T02:56:05;1.40;;;1.30;;
18320;SDS011;54904;54.350;18.664;2023-04-01T02:58:34;1.10;;;1.10;;
18320;SDS011;54904;54.350;18.664;2023-04-01T03:01:02;1.20;;;1.20;;
18320;SDS011;54904;54.350;18.664;2023-04-01T03:03:29;1.20;;;1.20;;
18320;SDS011;54904;54.350;18.664;2023-04-01T03:05:56;1.17;;;1.17;;
18320;SDS011;54904;54.350;18.664;2023-04-01T03:08:25;1.43;;;1.33;;
18320;SDS011;54904;54.350;18.664;2023-04-01T03:10:52;1.00;;;1.00;;
18320;SDS011;54904;54.350;18.664;2023-04-01T03:13:20;0.93;;;0.93;;
18320;SDS011;54904;54.350;18.664;2023-04-01T03:15:49;1.00;;;1.00;;
18320;SDS011;54904;54.350;18.664;2023-04-01T03:18:16;1.20;;;1.20;;
18320;SDS011;54904;54.350;18.664;2023-04-01T03:20:43;1.40;;;1.30;;
18320;SDS011;54904;54.350;18.664;2023-04-01T03:23:11;1.10;;;1.10;;
18320;SDS011;54904;54.350;18.664;2023-04-01T03:25:38;1.40;;;1.40;;
18320;SDS011;54904;54.350;18.664;2023-04-01T03:28:06;1.20;;;1.20;;
18320;SDS011;54904;54.350;18.664;2023-04-01T03:30:33;1.70;;;1.60;;
18320;SDS011;54904;54.350;18.664;2023-04-01T03:33:02;1.70;;;1.60;;
18320;SDS011;54904;54.350;18.664;2023-04-01T03:35:31;1.77;;;1.67;;
18320;SDS011;54904;54.350;18.664;2023-04-01T03:37:58;1.70;;;1.60;;
18320;SDS011;54904;54.350;18.664;2023-04-01T03:40:25;1.57;;;1.47;;
18320;SDS011;54904;54.350;18.664;2023-04-01T03:42:53;1.40;;;1.30;;
18320;SDS011;54904;54.350;18.664;2023-04-01T03:45:21;1.77;;;1.67;;
18320;SDS011;54904;54.350;18.664;2023-04-01T03:47:48;2.27;;;2.07;;
18320;SDS011;54904;54.350;18.664;2023-04-01T03:50:17;1.90;;;1.70;;
18320;SDS011;54904;54.350;18.664;2023-04-01T03:52:45;2.43;;;2.20;;
18320;SDS011;54904;54.350;18.664;2023-04-01T03:55:12;2.20;;;2.00;;
18320;SDS011;54904;54.350;18.664;2023-04-01T03:57:39;1.83;;;1.73;;
18320;SDS011;54904;54.350;18.664;2023-04-01T04:00:15;1.60;;;1.50;;
18320;SDS011;54904;54.350;18.664;2023-04-01T04:02:45;4.00;;;1.90;;
18320;SDS011;54904;54.350;18.664;2023-04-01T04:05:20;1.80;;;1.70;;
18320;SDS011;54904;54.350;18.664;2023-04-01T04:07:47;1.60;;;1.50;;
18320;SDS011;54904;54.350;18.664;2023-04-01T04:10:15;1.40;;;1.37;;
18320;SDS011;54904;54.350;18.664;2023-04-01T04:12:42;1.83;;;1.73;;
18320;SDS011;54904;54.350;18.664;2023-04-01T04:15:10;2.00;;;1.90;;
18320;SDS011;54904;54.350;18.664;2023-04-01T04:17:38;1.30;;;1.30;;
18320;SDS011;54904;54.350;18.664;2023-04-01T04:20:05;1.70;;;1.60;;
18320;SDS011;54904;54.350;18.664;2023-04-01T04:22:35;1.67;;;1.57;;
18320;SDS011;54904;54.350;18.664;2023-04-01T04:25:05;1.60;;;1.50;;
18320;SDS011;54904;54.350;18.664;2023-04-01T04:27:33;1.20;;;1.20;;
18320;SDS011;54904;54.350;18.664;2023-04-01T04:30:06;1.77;;;1.60;;
18320;SDS011;54904;54.350;18.664;2023-04-01T04:32:36;1.70;;;1.60;;
18320;SDS011;54904;54.350;18.664;2023-04-01T04:35:04;1.70;;;1.60;;
18320;SDS011;54904;54.350;18.664;2023-04-01T04:37:33;1.60;;;1.50;;
18320;SDS011;54904;54.350;18.664;2023-04-01T04:40:02;2.30;;;2.10;;
18320;SDS011;54904;54.350;18.664;2023-04-01T04:42:30;2.33;;;2.13;;
18320;SDS011;54904;54.350;18.664;2023-04-01T04:45:04;1.60;;;1.50;;
18320;SDS011;54904;54.350;18.664;2023-04-01T04:47:32;3.03;;;2.73;;
18320;SDS011;54904;54.350;18.664;2023-04-01T04:49:59;2.37;;;2.17;;
18320;SDS011;54904;54.350;18.664;2023-04-01T04:52:26;1.77;;;1.67;;
18320;SDS011;54904;54.350;18.664;2023-04-01T04:54:54;3.37;;;2.80;;
18320;SDS011;54904;54.350;18.664;2023-04-01T04:57:22;3.60;;;2.87;;
18320;SDS011;54904;54.350;18.664;2023-04-01T04:59:53;3.63;;;2.60;;
18320;SDS011;54904;54.350;18.664;2023-04-01T05:02:41;4.70;;;2.90;;
18320;SDS011;54904;54.350;18.664;2023-04-01T05:05:08;2.90;;;2.23;;
18320;SDS011;54904;54.350;18.664;2023-04-01T05:07:36;3.07;;;2.77;;
18320;SDS011;54904;54.350;18.664;2023-04-01T05:10:04;4.87;;;3.23;;
18320;SDS011;54904;54.350;18.664;2023-04-01T05:12:34;3.23;;;2.93;;
18320;SDS011;54904;54.350;18.664;2023-04-01T05:15:04;3.57;;;2.90;;
18320;SDS011;54904;54.350;18.664;2023-04-01T05:17:33;10.17;;;3.77;;
18320;SDS011;54904;54.350;18.664;2023-04-01T05:20:02;9.10;;;5.43;;
18320;SDS011;54904;54.350;18.664;2023-04-01T05:22:29;5.97;;;4.27;;
18320;SDS011;54904;54.350;18.664;2023-04-01T05:24:56;13.37;;;6.83;;
18320;SDS011;54904;54.350;18.664;2023-04-01T05:27:24;13.00;;;7.00;;
18320;SDS011;54904;54.350;18.664;2023-04-01T05:29:53;10.50;;;6.03;;
18320;SDS011;54904;54.350;18.664;2023-04-01T05:32:42;8.73;;;5.07;;
18320;SDS011;54904;54.350;18.664;2023-04-01T05:35:10;10.07;;;5.50;;
18320;SDS011;54904;54.350;18.664;2023-04-01T05:37:38;13.43;;;7.90;;
18320;SDS011;54904;54.350;18.664;2023-04-01T05:40:05;13.57;;;8.30;;
18320;SDS011;54904;54.350;18.664;2023-04-01T05:42:33;12.27;;;7.37;;
18320;SDS011;54904;54.350;18.664;2023-04-01T05:45:02;11.77;;;6.90;;
18320;SDS011;54904;54.350;18.664;2023-04-01T05:47:50;9.60;;;5.53;;
18320;SDS011;54904;54.350;18.664;2023-04-01T05:50:18;16.70;;;8.77;;
18320;SDS011;54904;54.350;18.664;2023-04-01T05:52:45;14.67;;;8.07;;
18320;SDS011;54904;54.350;18.664;2023-04-01T05:55:13;11.00;;;7.33;;
18320;SDS011;54904;54.350;18.664;2023-04-01T05:57:40;9.73;;;6.30;;
18320;SDS011;54904;54.350;18.664;2023-04-01T06:00:10;6.67;;;4.57;;
18320;SDS011;54904;54.350;18.664;2023-04-01T06:02:39;4.50;;;3.20;;
18320;SDS011;54904;54.350;18.664;2023-04-01T06:05:11;3.83;;;3.30;;
18320;SDS011;54904;54.350;18.664;2023-04-01T06:07:40;9.03;;;4.83;;
18320;SDS011;54904;54.350;18.664;2023-04-01T06:10:14;8.73;;;4.83;;
18320;SDS011;54904;54.350;18.664;2023-04-01T06:12:52;7.00;;;3.70;;
18320;SDS011;54904;54.350;18.664;2023-04-01T06:15:33;5.50;;;3.73;;
18320;SDS011;54904;54.350;18.664;2023-04-01T06:18:13;7.13;;;4.67;;
18320;SDS011;54904;54.350;18.664;2023-04-01T06:21:12;7.13;;;4.67;;
18320;SDS011;54904;54.350;18.664;2023-04-01T06:24:06;14.73;;;7.60;;
18320;SDS011;54904;54.350;18.664;2023-04-01T06:26:46;18.90;;;10.00;;
18320;SDS011;54904;54.350;18.664;2023-04-01T06:29:32;13.90;;;8.67;;
18320;SDS011;54904;54.350;18.664;2023-04-01T06:32:24;12.93;;;8.17;;
18320;SDS011;54904;54.350;18.664;2023-04-01T06:35:11;10.13;;;6.90;;
18320;SDS011;54904;54.350;18.664;2023-04-01T06:38:17;8.93;;;5.90;;
18320;SDS011;54904;54.350;18.664;2023-04-01T06:41:11;8.10;;;5.50;;
18320;SDS011;54904;54.350;18.664;2023-04-01T06:44:07;11.20;;;6.53;;
18320;SDS011;54904;54.350;18.664;2023-04-01T06:47:03;9.33;;;5.80;;
18320;SDS011;54904;54.350;18.664;2023-04-01T06:49:48;7.60;;;4.63;;
18320;SDS011;54904;54.350;18.664;2023-04-01T06:52:47;10.67;;;5.80;;
18320;SDS011;54904;54.350;18.664;2023-04-01T06:55:40;7.10;;;4.07;;
18320;SDS011;54904;54.350;18.664;2023-04-01T06:58:18;4.80;;;3.17;;
18320;SDS011;54904;54.350;18.664;2023-04-01T07:00:49;5.00;;;3.53;;
18320;SDS011;54904;54.350;18.664;2023-04-01T07:03:21;4.23;;;2.67;;
18320;SDS011;54904;54.350;18.664;2023-04-01T07:06:02;8.33;;;2.60;;
18320;SDS011;54904;54.350;18.664;2023-04-01T07:08:36;4.50;;;2.30;;
18320;SDS011;54904;54.350;18.664;2023-04-01T07:11:08;3.17;;;1.80;;
18320;SDS011;54904;54.350;18.664;2023-04-01T07:13:55;4.93;;;3.20;;
18320;SDS011;54904;54.350;18.664;2023-04-01T07:16:29;12.53;;;6.30;;
18320;SDS011;54904;54.350;18.664;2023-04-01T07:19:01;9.83;;;4.93;;
18320;SDS011;54904;54.350;18.664;2023-04-01T07:21:52;5.10;;;3.37;;
18320;SDS011;54904;54.350;18.664;2023-04-01T07:24:36;4.03;;;2.90;;
18320;SDS011;54904;54.350;18.664;2023-04-01T07:27:08;10.47;;;3.57;;
18320;SDS011;54904;54.350;18.664;2023-04-01T07:29:39;11.60;;;5.03;;
18320;SDS011;54904;54.350;18.664;2023-04-01T07:32:13;5.60;;;3.47;;
18320;SDS011;54904;54.350;18.664;2023-04-01T07:35:04;9.70;;;2.20;;
18320;SDS011;54904;54.350;18.664;2023-04-01T07:37:42;4.23;;;2.00;;
18320;SDS011;54904;54.350;18.664;2023-04-01T07:40:21;2.60;;;1.90;;
18320;SDS011;54904;54.350;18.664;2023-04-01T07:43:00;9.77;;;3.90;;
18320;SDS011;54904;54.350;18.664;2023-04-01T07:45:48;16.47;;;5.43;;
18320;SDS011;54904;54.350;18.664;2023-04-01T07:48:21;16.43;;;5.67;;
18320;SDS011;54904;54.350;18.664;2023-04-01T07:50:58;9.67;;;4.57;;
18320;SDS011;54904;54.350;18.664;2023-04-01T07:53:32;8.03;;;3.60;;
18320;SDS011;54904;54.350;18.664;2023-04-01T07:56:08;4.67;;;2.63;;
18320;SDS011;54904;54.350;18.664;2023-04-01T07:58:44;3.20;;;1.90;;
18320;SDS011;54904;54.350;18.664;2023-04-01T08:01:56;2.93;;;1.70;;
18320;SDS011;54904;54.350;18.664;2023-04-01T08:04:44;3.73;;;2.23;;
18320;SDS011;54904;54.350;18.664;2023-04-01T08:07:28;4.63;;;2.13;;
18320;SDS011;54904;54.350;18.664;2023-04-01T08:10:30;4.43;;;2.27;;
18320;SDS011;54904;54.350;18.664;2023-04-01T08:13:26;7.70;;;2.90;;
18320;SDS011;54904;54.350;18.664;2023-04-01T08:16:19;6.70;;;2.70;;
18320;SDS011;54904;54.350;18.664;2023-04-01T08:18:54;3.73;;;2.20;;
18320;SDS011;54904;54.350;18.664;2023-04-01T08:21:32;4.87;;;2.07;;
18320;SDS011;54904;54.350;18.664;2023-04-01T08:24:06;5.37;;;2.50;;
18320;SDS011;54904;54.350;18.664;2023-04-01T08:26:46;4.43;;;2.27;;
18320;SDS011;54904;54.350;18.664;2023-04-01T08:29:18;6.57;;;2.40;;
18320;SDS011;54904;54.350;18.664;2023-04-01T08:31:48;8.40;;;2.57;;
18320;SDS011;54904;54.350;18.664;2023-04-01T08:34:20;5.70;;;2.50;;
18320;SDS011;54904;54.350;18.664;2023-04-01T08:36:52;6.00;;;2.27;;
18320;SDS011;54904;54.350;18.664;2023-04-01T08:39:28;2.90;;;1.80;;
18320;SDS011;54904;54.350;18.664;2023-04-01T08:42:03;5.07;;;1.93;;
18320;SDS011;54904;54.350;18.664;2023-04-01T08:45:05;4.57;;;2.07;;
18320;SDS011;54904;54.350;18.664;2023-04-01T08:47:59;4.30;;;2.20;;
18320;SDS011;54904;54.350;18.664;2023-04-01T08:50:51;3.67;;;2.47;;
18320;SDS011;54904;54.350;18.664;2023-04-01T08:56:33;2.67;;;1.80;;
18320;SDS011;54904;54.350;18.664;2023-04-01T08:59:18;3.70;;;2.20;;
18320;SDS011;54904;54.350;18.664;2023-04-01T09:02:25;2.67;;;2.07;;
18320;SDS011;54904;54.350;18.664;2023-04-01T09:05:38;5.40;;;2.37;;
18320;SDS011;54904;54.350;18.664;2023-04-01T09:08:32;2.67;;;1.80;;
18320;SDS011;54904;54.350;18.664;2023-04-01T09:11:16;6.47;;;2.40;;
18320;SDS011;54904;54.350;18.664;2023-04-01T09:14:07;5.53;;;3.10;;
18320;SDS011;54904;54.350;18.664;2023-04-01T09:20:17;4.33;;;2.50;;
18320;SDS011;54904;54.350;18.664;2023-04-01T09:23:08;5.10;;;2.40;;
18320;SDS011;54904;54.350;18.664;2023-04-01T09:25:58;5.23;;;2.10;;
18320;SDS011;54904;54.350;18.664;2023-04-01T09:28:42;2.40;;;1.80;;
18320;SDS011;54904;54.350;18.664;2023-04-01T09:37:29;4.60;;;2.30;;
18320;SDS011;54904;54.350;18.664;2023-04-01T09:43:13;3.07;;;2.17;;
18320;SDS011;54904;54.350;18.664;2023-04-01T09:45:53;6.93;;;2.07;;
18320;SDS011;54904;54.350;18.664;2023-04-01T09:48:46;3.90;;;2.00;;
18320;SDS011;54904;54.350;18.664;2023-04-01T09:51:44;6.20;;;2.40;;
18320;SDS011;54904;54.350;18.664;2023-04-01T09:54:26;2.87;;;1.83;;
18320;SDS011;54904;54.350;18.664;2023-04-01T10:00:40;2.07;;;1.87;;
18320;SDS011;54904;54.350;18.664;2023-04-01T10:06:48;6.50;;;2.10;;
18320;SDS011;54904;54.350;18.664;2023-04-01T10:09:44;2.50;;;1.57;;
18320;SDS011;54904;54.350;18.664;2023-04-01T10:12:43;2.97;;;1.70;;
18320;SDS011;54904;54.350;18.664;2023-04-01T10:21:51;3.60;;;1.50;;
18320;SDS011;54904;54.350;18.664;2023-04-01T10:24:49;3.10;;;2.00;;
18320;SDS011;54904;54.350;18.664;2023-04-01T10:27:34;2.73;;;2.00;;
18320;SDS011;54904;54.350;18.664;2023-04-01T10:37:26;2.50;;;1.93;;
18320;SDS011;54904;54.350;18.664;2023-04-01T10:43:55;5.87;;;2.30;;
18320;SDS011;54904;54.350;18.664;2023-04-01T10:46:53;4.83;;;2.63;;
18320;SDS011;54904;54.350;18.664;2023-04-01T10:49:55;3.97;;;2.03;;
18320;SDS011;54904;54.350;18.664;2023-04-01T10:53:10;2.77;;;1.90;;
18320;SDS011;54904;54.350;18.664;2023-04-01T10:56:33;8.00;;;2.20;;
18320;SDS011;54904;54.350;18.664;2023-04-01T11:09:20;3.40;;;1.23;;
18320;SDS011;54904;54.350;18.664;2023-04-01T11:12:23;1.27;;;1.17;;
18320;SDS011;54904;54.350;18.664;2023-04-01T11:18:29;2.40;;;1.70;;
18320;SDS011;54904;54.350;18.664;2023-04-01T11:21:27;3.00;;;1.60;;
18320;SDS011;54904;54.350;18.664;2023-04-01T11:24:42;5.13;;;1.67;;
18320;SDS011;54904;54.350;18.664;2023-04-01T11:27:55;2.10;;;1.23;;
18320;SDS011;54904;54.350;18.664;2023-04-01T11:30:46;1.50;;;1.40;;
18320;SDS011;54904;54.350;18.664;2023-04-01T11:33:25;1.63;;;1.53;;
18320;SDS011;54904;54.350;18.664;2023-04-01T11:36:04;1.77;;;1.50;;
18320;SDS011;54904;54.350;18.664;2023-04-01T11:38:47;1.33;;;1.20;;
18320;SDS011;54904;54.350;18.664;2023-04-01T11:41:59;1.60;;;1.00;;
18320;SDS011;54904;54.350;18.664;2023-04-01T11:45:01;2.37;;;1.00;;
18320;SDS011;54904;54.350;18.664;2023-04-01T11:50:59;2.40;;;1.07;;
18320;SDS011;54904;54.350;18.664;2023-04-01T11:53:44;1.10;;;0.97;;
18320;SDS011;54904;54.350;18.664;2023-04-01T11:56:21;1.20;;;1.10;;
18320;SDS011;54904;54.350;18.664;2023-04-01T11:59:23;1.30;;;1.20;;
18320;SDS011;54904;54.350;18.664;2023-04-01T12:02:11;1.77;;;1.23;;
18320;SDS011;54904;54.350;18.664;2023-04-01T12:04:55;2.60;;;1.10;;
18320;SDS011;54904;54.350;18.664;2023-04-01T12:07:41;1.10;;;0.80;;
18320;SDS011;54904;54.350;18.664;2023-04-01T12:10:38;2.60;;;1.10;;
18320;SDS011;54904;54.350;18.664;2023-04-01T12:13:21;1.73;;;1.20;;
18320;SDS011;54904;54.350;18.664;2023-04-01T12:16:03;1.20;;;1.10;;
18320;SDS011;54904;54.350;18.664;2023-04-01T12:18:41;4.63;;;1.03;;
18320;SDS011;54904;54.350;18.664;2023-04-01T12:21:16;3.40;;;1.53;;
18320;SDS011;54904;54.350;18.664;2023-04-01T12:23:52;2.63;;;1.60;;
18320;SDS011;54904;54.350;18.664;2023-04-01T12:26:38;1.93;;;1.20;;
18320;SDS011;54904;54.350;18.664;2023-04-01T12:29:15;7.40;;;1.90;;
18320;SDS011;54904;54.350;18.664;2023-04-01T12:32:09;2.70;;;1.30;;
18320;SDS011;54904;54.350;18.664;2023-04-01T12:34:58;3.03;;;1.73;;
18320;SDS011;54904;54.350;18.664;2023-04-01T12:37:39;2.07;;;1.53;;
18320;SDS011;54904;54.350;18.664;2023-04-01T12:43:17;2.73;;;1.80;;
18320;SDS011;54904;54.350;18.664;2023-04-01T12:46:06;1.33;;;1.23;;
18320;SDS011;54904;54.350;18.664;2023-04-01T12:48:45;1.20;;;1.10;;
18320;SDS011;54904;54.350;18.664;2023-04-01T12:51:48;3.00;;;1.83;;
18320;SDS011;54904;54.350;18.664;2023-04-01T12:54:47;2.20;;;1.60;;
18320;SDS011;54904;54.350;18.664;2023-04-01T12:57:41;2.17;;;1.53;;
18320;SDS011;54904;54.350;18.664;2023-04-01T13:00:23;1.57;;;1.30;;
18320;SDS011;54904;54.350;18.664;2023-04-01T13:03:05;3.70;;;1.50;;
18320;SDS011;54904;54.350;18.664;2023-04-01T13:06:16;4.00;;;1.50;;
18320;SDS011;54904;54.350;18.664;2023-04-01T13:08:55;1.87;;;1.33;;
18320;SDS011;54904;54.350;18.664;2023-04-01T13:11:36;2.80;;;1.60;;
18320;SDS011;54904;54.350;18.664;2023-04-01T13:17:02;1.50;;;1.40;;
18320;SDS011;54904;54.350;18.664;2023-04-01T13:19:38;1.50;;;1.40;;
18320;SDS011;54904;54.350;18.664;2023-04-01T13:22:15;0.97;;;0.93;;
18320;SDS011;54904;54.350;18.664;2023-04-01T13:24:49;1.93;;;1.10;;
18320;SDS011;54904;54.350;18.664;2023-04-01T13:27:21;1.13;;;1.03;;
18320;SDS011;54904;54.350;18.664;2023-04-01T13:30:05;1.43;;;1.20;;
18320;SDS011;54904;54.350;18.664;2023-04-01T13:32:48;1.57;;;1.10;;
18320;SDS011;54904;54.350;18.664;2023-04-01T13:35:24;3.00;;;1.57;;
18320;SDS011;54904;54.350;18.664;2023-04-01T13:40:56;2.20;;;1.57;;
18320;SDS011;54904;54.350;18.664;2023-04-01T13:43:31;3.53;;;1.60;;
18320;SDS011;54904;54.350;18.664;2023-04-01T13:46:06;2.10;;;1.53;;
18320;SDS011;54904;54.350;18.664;2023-04-01T13:48:48;2.60;;;1.50;;
18320;SDS011;54904;54.350;18.664;2023-04-01T13:51:44;4.23;;;1.77;;
18320;SDS011;54904;54.350;18.664;2023-04-01T13:54:40;3.47;;;2.70;;
18320;SDS011;54904;54.350;18.664;2023-04-01T13:57:25;2.10;;;1.50;;
18320;SDS011;54904;54.350;18.664;2023-04-01T14:00:10;1.70;;;1.50;;
18320;SDS011;54904;54.350;18.664;2023-04-01T14:02:51;3.27;;;1.73;;
18320;SDS011;54904;54.350;18.664;2023-04-01T14:05:38;2.83;;;2.30;;
18320;SDS011;54904;54.350;18.664;2023-04-01T14:08:20;3.73;;;1.60;;
18320;SDS011;54904;54.350;18.664;2023-04-01T14:11:01;1.93;;;1.60;;
18320;SDS011;54904;54.350;18.664;2023-04-01T14:13:38;2.43;;;1.37;;
18320;SDS011;54904;54.350;18.664;2023-04-01T14:16:15;1.53;;;1.20;;
18320;SDS011;54904;54.350;18.664;2023-04-01T14:19:08;1.57;;;1.47;;
18320;SDS011;54904;54.350;18.664;2023-04-01T14:21:52;1.60;;;1.50;;
18320;SDS011;54904;54.350;18.664;2023-04-01T14:24:36;3.27;;;2.00;;
18320;SDS011;54904;54.350;18.664;2023-04-01T14:27:26;3.00;;;1.63;;
18320;SDS011;54904;54.350;18.664;2023-04-01T14:30:13;2.47;;;1.60;;
18320;SDS011;54904;54.350;18.664;2023-04-01T14:32:56;1.87;;;1.60;;
18320;SDS011;54904;54.350;18.664;2023-04-01T14:35:37;3.03;;;2.10;;
18320;SDS011;54904;54.350;18.664;2023-04-01T14:41:16;4.97;;;2.30;;
18320;SDS011;54904;54.350;18.664;2023-04-01T14:43:49;2.30;;;1.50;;
18320;SDS011;54904;54.350;18.664;2023-04-01T14:46:56;1.63;;;1.50;;
18320;SDS011;54904;54.350;18.664;2023-04-01T14:49:39;5.83;;;1.90;;
18320;SDS011;54904;54.350;18.664;2023-04-01T14:52:10;3.73;;;1.90;;
18320;SDS011;54904;54.350;18.664;2023-04-01T14:54:42;2.83;;;1.90;;
18320;SDS011;54904;54.350;18.664;2023-04-01T14:57:11;3.53;;;1.50;;
18320;SDS011;54904;54.350;18.664;2023-04-01T14:59:41;1.73;;;1.60;;
18320;SDS011;54904;54.350;18.664;2023-04-01T15:02:18;4.30;;;1.97;;
18320;SDS011;54904;54.350;18.664;2023-04-01T15:05:11;3.40;;;1.70;;
18320;SDS011;54904;54.350;18.664;2023-04-01T15:07:49;4.00;;;1.63;;
18320;SDS011;54904;54.350;18.664;2023-04-01T15:10:35;3.00;;;1.80;;
18320;SDS011;54904;54.350;18.664;2023-04-01T15:13:23;1.77;;;1.43;;
18320;SDS011;54904;54.350;18.664;2023-04-01T15:16:13;2.17;;;1.40;;
18320;SDS011;54904;54.350;18.664;2023-04-01T15:18:51;1.70;;;1.60;;
18320;SDS011;54904;54.350;18.664;2023-04-01T15:21:32;2.77;;;2.37;;
18320;SDS011;54904;54.350;18.664;2023-04-01T15:24:19;2.27;;;2.00;;
18320;SDS011;54904;54.350;18.664;2023-04-01T15:30:09;4.00;;;2.00;;
18320;SDS011;54904;54.350;18.664;2023-04-01T15:32:52;4.27;;;2.53;;
18320;SDS011;54904;54.350;18.664;2023-04-01T15:35:35;5.37;;;2.40;;
18320;SDS011;54904;54.350;18.664;2023-04-01T15:38:12;4.00;;;2.13;;
18320;SDS011;54904;54.350;18.664;2023-04-01T15:40:53;2.60;;;2.10;;
18320;SDS011;54904;54.350;18.664;2023-04-01T15:43:31;3.70;;;2.40;;
18320;SDS011;54904;54.350;18.664;2023-04-01T15:46:14;3.33;;;2.30;;
18320;SDS011;54904;54.350;18.664;2023-04-01T15:55:00;5.23;;;2.47;;
18320;SDS011;54904;54.350;18.664;2023-04-01T15:57:42;3.47;;;2.47;;
18320;SDS011;54904;54.350;18.664;2023-04-01T16:00:27;5.13;;;2.63;;
18320;SDS011;54904;54.350;18.664;2023-04-01T16:03:08;3.93;;;2.43;;
18320;SDS011;54904;54.350;18.664;2023-04-01T16:05:59;5.97;;;2.33;;
18320;SDS011;54904;54.350;18.664;2023-04-01T16:08:51;5.03;;;2.40;;
18320;SDS011;54904;54.350;18.664;2023-04-01T16:11:29;3.30;;;2.87;;
18320;SDS011;54904;54.350;18.664;2023-04-01T16:14:12;4.03;;;2.47;;
18320;SDS011;54904;54.350;18.664;2023-04-01T16:16:53;5.47;;;3.07;;
18320;SDS011;54904;54.350;18.664;2023-04-01T16:19:33;4.83;;;2.33;;
18320;SDS011;54904;54.350;18.664;2023-04-01T16:22:20;4.10;;;2.30;;
18320;SDS011;54904;54.350;18.664;2023-04-01T16:24:53;4.43;;;2.87;;
18320;SDS011;54904;54.350;18.664;2023-04-01T16:27:41;8.30;;;3.87;;
18320;SDS011;54904;54.350;18.664;2023-04-01T16:30:33;6.00;;;2.87;;
18320;SDS011;54904;54.350;18.664;2023-04-01T16:33:03;6.87;;;2.77;;
18320;SDS011;54904;54.350;18.664;2023-04-01T16:35:40;4.40;;;2.50;;
18320;SDS011;54904;54.350;18.664;2023-04-01T16:38:15;5.43;;;2.67;;
18320;SDS011;54904;54.350;18.664;2023-04-01T16:40:52;2.60;;;2.40;;
18320;SDS011;54904;54.350;18.664;2023-04-01T16:43:35;2.83;;;2.33;;
18320;SDS011;54904;54.350;18.664;2023-04-01T16:49:03;4.63;;;2.77;;
18320;SDS011;54904;54.350;18.664;2023-04-01T16:51:44;3.50;;;2.73;;
18320;SDS011;54904;54.350;18.664;2023-04-01T16:54:16;4.30;;;2.90;;
18320;SDS011;54904;54.350;18.664;2023-04-01T16:56:55;5.47;;;2.67;;
18320;SDS011;54904;54.350;18.664;2023-04-01T16:59:29;4.00;;;2.40;;
18320;SDS011;54904;54.350;18.664;2023-04-01T17:02:03;3.13;;;2.73;;